sensor_id;sensor_type;location;lat;lon;timestamp;temperature;humidity
23815;DHT22;12088;53.078;8.720;2023-05-27T00:01:49;8.60;99.90
23815;DHT22;12088;53.078;8.720;2023-05-27T00:04:15;8.60;99.90
23815;DHT22;12088;53.078;8.720;2023-05-27T00:06:40;8.60;99.90
23815;DHT22;12088;53.078;8.720;2023-05-27T00:09:06;8.40;99.90
23815;DHT22;12088;53.078;8.720;2023-05-27T00:11:32;8.40;99.90
23815;DHT22;12088;53.078;8.720;2023-05-27T00:13:57;8.40;99.90
23815;DHT22;12088;53.078;8.720;2023-05-27T00:16:23;8.30;99.90
23815;DHT22;12088;53.078;8.720;2023-05-27T00:18:50;8.20;99.90
23815;DHT22;12088;53.078;8.720;2023-05-27T00:21:15;8.20;99.90
23815;DHT22;12088;53.078;8.720;2023-05-27T00:23:45;8.30;99.90
23815;DHT22;12088;53.078;8.720;2023-05-27T00:26:11;8.20;99.90
23815;DHT22;12088;53.078;8.720;2023-05-27T00:28:37;8.20;99.90
23815;DHT22;12088;53.078;8.720;2023-05-27T00:31:03;8.20;99.90
23815;DHT22;12088;53.078;8.720;2023-05-27T00:33:29;8.20;99.90
23815;DHT22;12088;53.078;8.720;2023-05-27T00:35:54;8.10;99.90
23815;DHT22;12088;53.078;8.720;2023-05-27T00:38:20;8.00;99.90
23815;DHT22;12088;53.078;8.720;2023-05-27T00:40:46;8.10;99.90
23815;DHT22;12088;53.078;8.720;2023-05-27T00:43:12;8.10;99.90
23815;DHT22;12088;53.078;8.720;2023-05-27T00:45:37;8.10;99.90
23815;DHT22;12088;53.078;8.720;2023-05-27T00:48:03;8.10;99.90
23815;DHT22;12088;53.078;8.720;2023-05-27T00:50:30;8.10;99.90
23815;DHT22;12088;53.078;8.720;2023-05-27T00:52:56;8.00;99.90
23815;DHT22;12088;53.078;8.720;2023-05-27T00:55:23;8.00;99.90
23815;DHT22;12088;53.078;8.720;2023-05-27T00:57:48;8.10;99.90
23815;DHT22;12088;53.078;8.720;2023-05-27T01:00:14;8.20;99.90
23815;DHT22;12088;53.078;8.720;2023-05-27T01:02:41;8.10;99.90
23815;DHT22;12088;53.078;8.720;2023-05-27T01:05:09;8.30;99.90
23815;DHT22;12088;53.078;8.720;2023-05-27T01:13:03;8.00;99.90
23815;DHT22;12088;53.078;8.720;2023-05-27T01:15:32;7.90;99.90
23815;DHT22;12088;53.078;8.720;2023-05-27T01:18:00;7.90;99.90
23815;DHT22;12088;53.078;8.720;2023-05-27T01:20:28;7.80;99.90
23815;DHT22;12088;53.078;8.720;2023-05-27T01:22:54;7.80;99.90
23815;DHT22;12088;53.078;8.720;2023-05-27T01:25:23;7.80;99.90
23815;DHT22;12088;53.078;8.720;2023-05-27T01:27:48;7.80;99.90
23815;DHT22;12088;53.078;8.720;2023-05-27T01:30:15;7.70;99.90
23815;DHT22;12088;53.078;8.720;2023-05-27T01:32:53;7.80;99.90
23815;DHT22;12088;53.078;8.720;2023-05-27T01:37:51;7.80;99.90
23815;DHT22;12088;53.078;8.720;2023-05-27T01:40:18;7.80;99.90
23815;DHT22;12088;53.078;8.720;2023-05-27T01:42:44;7.70;99.90
23815;DHT22;12088;53.078;8.720;2023-05-27T01:45:10;7.70;99.90
23815;DHT22;12088;53.078;8.720;2023-05-27T01:47:36;7.70;99.90
23815;DHT22;12088;53.078;8.720;2023-05-27T01:50:02;7.70;99.90
23815;DHT22;12088;53.078;8.720;2023-05-27T01:52:28;7.70;99.90
23815;DHT22;12088;53.078;8.720;2023-05-27T01:54:54;7.80;99.90
23815;DHT22;12088;53.078;8.720;2023-05-27T01:57:21;7.80;99.90
23815;DHT22;12088;53.078;8.720;2023-05-27T01:59:46;7.70;99.90
23815;DHT22;12088;53.078;8.720;2023-05-27T02:02:12;7.60;99.90
23815;DHT22;12088;53.078;8.720;2023-05-27T02:04:38;7.60;99.90
23815;DHT22;12088;53.078;8.720;2023-05-27T02:07:04;7.60;99.90
23815;DHT22;12088;53.078;8.720;2023-05-27T02:09:29;7.50;99.90
23815;DHT22;12088;53.078;8.720;2023-05-27T02:11:55;7.60;99.90
23815;DHT22;12088;53.078;8.720;2023-05-27T02:14:21;7.60;99.90
23815;DHT22;12088;53.078;8.720;2023-05-27T02:16:47;7.50;99.90
23815;DHT22;12088;53.078;8.720;2023-05-27T02:19:15;7.40;99.90
23815;DHT22;12088;53.078;8.720;2023-05-27T02:21:40;7.30;99.90
23815;DHT22;12088;53.078;8.720;2023-05-27T02:24:06;7.30;99.90
23815;DHT22;12088;53.078;8.720;2023-05-27T02:26:32;7.30;99.90
23815;DHT22;12088;53.078;8.720;2023-05-27T02:28:57;7.20;99.90
23815;DHT22;12088;53.078;8.720;2023-05-27T02:31:23;7.30;99.90
23815;DHT22;12088;53.078;8.720;2023-05-27T02:33:49;7.20;99.90
23815;DHT22;12088;53.078;8.720;2023-05-27T02:36:15;7.30;99.90
23815;DHT22;12088;53.078;8.720;2023-05-27T02:38:40;7.20;99.90
23815;DHT22;12088;53.078;8.720;2023-05-27T02:41:06;7.20;99.90
23815;DHT22;12088;53.078;8.720;2023-05-27T02:43:31;7.20;99.90
23815;DHT22;12088;53.078;8.720;2023-05-27T02:45:57;7.20;99.90
23815;DHT22;12088;53.078;8.720;2023-05-27T02:48:22;7.30;99.90
23815;DHT22;12088;53.078;8.720;2023-05-27T02:50:48;7.30;99.90
23815;DHT22;12088;53.078;8.720;2023-05-27T02:53:14;7.30;99.90
23815;DHT22;12088;53.078;8.720;2023-05-27T02:55:40;7.40;99.90
23815;DHT22;12088;53.078;8.720;2023-05-27T02:58:05;7.40;99.90
23815;DHT22;12088;53.078;8.720;2023-05-27T03:00:32;7.40;99.90
23815;DHT22;12088;53.078;8.720;2023-05-27T03:02:58;7.20;99.90
23815;DHT22;12088;53.078;8.720;2023-05-27T03:05:23;7.20;99.90
23815;DHT22;12088;53.078;8.720;2023-05-27T03:07:49;7.30;99.90
23815;DHT22;12088;53.078;8.720;2023-05-27T03:10:15;7.20;99.90
23815;DHT22;12088;53.078;8.720;2023-05-27T03:12:40;7.10;99.90
23815;DHT22;12088;53.078;8.720;2023-05-27T03:15:06;7.20;99.90
23815;DHT22;12088;53.078;8.720;2023-05-27T03:17:36;7.10;99.90
23815;DHT22;12088;53.078;8.720;2023-05-27T03:20:02;7.10;99.90
23815;DHT22;12088;53.078;8.720;2023-05-27T03:22:29;7.10;99.90
23815;DHT22;12088;53.078;8.720;2023-05-27T03:24:54;7.20;99.90
23815;DHT22;12088;53.078;8.720;2023-05-27T03:27:20;7.10;99.90
23815;DHT22;12088;53.078;8.720;2023-05-27T03:29:46;7.20;99.90
23815;DHT22;12088;53.078;8.720;2023-05-27T03:32:12;7.20;99.90
23815;DHT22;12088;53.078;8.720;2023-05-27T03:34:38;7.10;99.90
23815;DHT22;12088;53.078;8.720;2023-05-27T03:37:03;7.10;99.90
23815;DHT22;12088;53.078;8.720;2023-05-27T03:39:29;7.10;99.90
23815;DHT22;12088;53.078;8.720;2023-05-27T03:41:55;7.20;99.90
23815;DHT22;12088;53.078;8.720;2023-05-27T03:44:20;7.20;99.90
23815;DHT22;12088;53.078;8.720;2023-05-27T03:46:46;7.10;99.90
23815;DHT22;12088;53.078;8.720;2023-05-27T03:49:12;7.10;99.90
23815;DHT22;12088;53.078;8.720;2023-05-27T03:51:37;7.20;99.90
23815;DHT22;12088;53.078;8.720;2023-05-27T03:54:03;7.30;99.90
23815;DHT22;12088;53.078;8.720;2023-05-27T03:56:29;7.30;99.90
23815;DHT22;12088;53.078;8.720;2023-05-27T03:58:54;7.40;99.90
23815;DHT22;12088;53.078;8.720;2023-05-27T04:01:20;7.40;99.90
23815;DHT22;12088;53.078;8.720;2023-05-27T04:03:45;7.40;99.90
23815;DHT22;12088;53.078;8.720;2023-05-27T04:06:11;7.30;99.90
23815;DHT22;12088;53.078;8.720;2023-05-27T04:08:37;7.30;99.90
23815;DHT22;12088;53.078;8.720;2023-05-27T04:11:04;7.40;99.90
23815;DHT22;12088;53.078;8.720;2023-05-27T04:13:30;7.40;99.90
23815;DHT22;12088;53.078;8.720;2023-05-27T04:15:55;7.50;99.90
23815;DHT22;12088;53.078;8.720;2023-05-27T04:18:22;7.50;99.90
23815;DHT22;12088;53.078;8.720;2023-05-27T04:20:48;7.50;99.90
23815;DHT22;12088;53.078;8.720;2023-05-27T04:23:16;7.40;99.90
23815;DHT22;12088;53.078;8.720;2023-05-27T04:25:42;7.50;99.90
23815;DHT22;12088;53.078;8.720;2023-05-27T04:28:08;7.50;99.90
23815;DHT22;12088;53.078;8.720;2023-05-27T04:30:34;7.60;99.90
23815;DHT22;12088;53.078;8.720;2023-05-27T04:33:00;7.60;99.90
23815;DHT22;12088;53.078;8.720;2023-05-27T04:35:26;7.70;99.90
23815;DHT22;12088;53.078;8.720;2023-05-27T04:37:52;7.80;99.90
23815;DHT22;12088;53.078;8.720;2023-05-27T04:40:18;7.80;99.90
23815;DHT22;12088;53.078;8.720;2023-05-27T04:42:44;8.00;99.90
23815;DHT22;12088;53.078;8.720;2023-05-27T04:45:12;8.00;99.90
23815;DHT22;12088;53.078;8.720;2023-05-27T04:47:37;8.10;99.90
23815;DHT22;12088;53.078;8.720;2023-05-27T04:50:04;8.20;99.90
23815;DHT22;12088;53.078;8.720;2023-05-27T04:52:30;8.20;99.90
23815;DHT22;12088;53.078;8.720;2023-05-27T04:55:03;8.30;99.90
23815;DHT22;12088;53.078;8.720;2023-05-27T04:57:29;8.40;99.90
23815;DHT22;12088;53.078;8.720;2023-05-27T04:59:54;8.60;99.90
23815;DHT22;12088;53.078;8.720;2023-05-27T05:02:30;8.70;99.90
23815;DHT22;12088;53.078;8.720;2023-05-27T05:05:06;8.80;99.90
23815;DHT22;12088;53.078;8.720;2023-05-27T05:07:34;9.00;99.90
23815;DHT22;12088;53.078;8.720;2023-05-27T05:10:04;9.10;99.90
23815;DHT22;12088;53.078;8.720;2023-05-27T05:12:30;9.20;99.90
23815;DHT22;12088;53.078;8.720;2023-05-27T05:14:56;9.40;99.90
23815;DHT22;12088;53.078;8.720;2023-05-27T05:17:21;9.50;99.90
23815;DHT22;12088;53.078;8.720;2023-05-27T05:19:49;9.50;99.90
23815;DHT22;12088;53.078;8.720;2023-05-27T05:22:15;9.70;99.90
23815;DHT22;12088;53.078;8.720;2023-05-27T05:24:44;9.70;99.90
23815;DHT22;12088;53.078;8.720;2023-05-27T05:27:10;9.80;99.90
23815;DHT22;12088;53.078;8.720;2023-05-27T05:29:36;9.90;99.90
23815;DHT22;12088;53.078;8.720;2023-05-27T05:32:03;10.10;99.90
23815;DHT22;12088;53.078;8.720;2023-05-27T05:34:31;10.10;99.90
23815;DHT22;12088;53.078;8.720;2023-05-27T05:36:57;10.30;99.90
23815;DHT22;12088;53.078;8.720;2023-05-27T05:39:22;10.40;99.90
23815;DHT22;12088;53.078;8.720;2023-05-27T05:41:48;10.50;99.90
23815;DHT22;12088;53.078;8.720;2023-05-27T05:44:15;10.60;99.90
23815;DHT22;12088;53.078;8.720;2023-05-27T05:46:41;10.70;99.90
23815;DHT22;12088;53.078;8.720;2023-05-27T05:49:06;10.80;99.90
23815;DHT22;12088;53.078;8.720;2023-05-27T05:51:32;10.90;99.90
23815;DHT22;12088;53.078;8.720;2023-05-27T05:53:58;10.90;99.90
23815;DHT22;12088;53.078;8.720;2023-05-27T05:56:24;11.00;99.90
23815;DHT22;12088;53.078;8.720;2023-05-27T05:58:51;11.20;99.90
23815;DHT22;12088;53.078;8.720;2023-05-27T06:01:17;11.30;99.90
23815;DHT22;12088;53.078;8.720;2023-05-27T06:03:43;11.40;99.90
23815;DHT22;12088;53.078;8.720;2023-05-27T06:06:09;11.40;99.90
23815;DHT22;12088;53.078;8.720;2023-05-27T06:08:35;11.50;99.90
23815;DHT22;12088;53.078;8.720;2023-05-27T06:11:00;11.60;99.90
23815;DHT22;12088;53.078;8.720;2023-05-27T06:13:26;11.70;99.90
23815;DHT22;12088;53.078;8.720;2023-05-27T06:15:51;11.70;99.90
23815;DHT22;12088;53.078;8.720;2023-05-27T06:18:17;11.90;99.90
23815;DHT22;12088;53.078;8.720;2023-05-27T06:20:43;11.90;99.90
23815;DHT22;12088;53.078;8.720;2023-05-27T06:23:09;11.90;99.90
23815;DHT22;12088;53.078;8.720;2023-05-27T06:25:34;12.00;99.90
23815;DHT22;12088;53.078;8.720;2023-05-27T06:28:00;12.10;99.90
23815;DHT22;12088;53.078;8.720;2023-05-27T06:30:26;12.20;99.90
23815;DHT22;12088;53.078;8.720;2023-05-27T06:32:52;12.40;99.90
23815;DHT22;12088;53.078;8.720;2023-05-27T06:35:18;12.60;99.90
23815;DHT22;12088;53.078;8.720;2023-05-27T06:37:43;12.70;99.90
23815;DHT22;12088;53.078;8.720;2023-05-27T06:40:10;12.80;99.90
23815;DHT22;12088;53.078;8.720;2023-05-27T06:42:36;13.00;99.90
23815;DHT22;12088;53.078;8.720;2023-05-27T06:45:02;12.90;99.90
23815;DHT22;12088;53.078;8.720;2023-05-27T06:47:27;13.00;99.90
23815;DHT22;12088;53.078;8.720;2023-05-27T06:49:53;13.00;99.90
23815;DHT22;12088;53.078;8.720;2023-05-27T06:52:19;13.10;99.90
23815;DHT22;12088;53.078;8.720;2023-05-27T06:54:44;13.20;99.90
23815;DHT22;12088;53.078;8.720;2023-05-27T06:57:11;13.50;99.90
23815;DHT22;12088;53.078;8.720;2023-05-27T06:59:36;13.70;99.90
23815;DHT22;12088;53.078;8.720;2023-05-27T07:02:02;14.00;99.90
23815;DHT22;12088;53.078;8.720;2023-05-27T07:04:28;14.20;99.90
23815;DHT22;12088;53.078;8.720;2023-05-27T07:06:53;14.40;99.90
23815;DHT22;12088;53.078;8.720;2023-05-27T07:09:19;14.60;99.90
23815;DHT22;12088;53.078;8.720;2023-05-27T07:11:44;14.70;99.90
23815;DHT22;12088;53.078;8.720;2023-05-27T07:14:10;14.60;99.90
23815;DHT22;12088;53.078;8.720;2023-05-27T07:16:36;14.70;99.90
23815;DHT22;12088;53.078;8.720;2023-05-27T07:19:02;14.50;99.90
23815;DHT22;12088;53.078;8.720;2023-05-27T07:21:27;14.80;99.90
23815;DHT22;12088;53.078;8.720;2023-05-27T07:23:53;15.00;99.90
23815;DHT22;12088;53.078;8.720;2023-05-27T07:26:18;15.30;99.90
23815;DHT22;12088;53.078;8.720;2023-05-27T07:28:45;15.20;99.90
23815;DHT22;12088;53.078;8.720;2023-05-27T07:31:10;15.20;99.90
23815;DHT22;12088;53.078;8.720;2023-05-27T07:33:36;15.20;99.90
23815;DHT22;12088;53.078;8.720;2023-05-27T07:36:02;15.50;99.90
23815;DHT22;12088;53.078;8.720;2023-05-27T07:38:27;15.90;99.90
23815;DHT22;12088;53.078;8.720;2023-05-27T07:40:53;16.00;99.90
23815;DHT22;12088;53.078;8.720;2023-05-27T07:43:18;16.10;99.90
23815;DHT22;12088;53.078;8.720;2023-05-27T07:45:44;16.40;99.90
23815;DHT22;12088;53.078;8.720;2023-05-27T07:48:09;16.60;99.90
23815;DHT22;12088;53.078;8.720;2023-05-27T07:50:35;16.80;99.90
23815;DHT22;12088;53.078;8.720;2023-05-27T07:53:00;17.10;99.90
23815;DHT22;12088;53.078;8.720;2023-05-27T07:55:26;16.70;99.90
23815;DHT22;12088;53.078;8.720;2023-05-27T07:57:54;16.90;99.90
23815;DHT22;12088;53.078;8.720;2023-05-27T08:00:20;17.00;99.90
23815;DHT22;12088;53.078;8.720;2023-05-27T08:02:46;17.40;99.90
23815;DHT22;12088;53.078;8.720;2023-05-27T08:05:11;17.90;99.90
23815;DHT22;12088;53.078;8.720;2023-05-27T08:07:37;17.90;99.90
23815;DHT22;12088;53.078;8.720;2023-05-27T08:10:03;17.80;99.90
23815;DHT22;12088;53.078;8.720;2023-05-27T08:12:29;18.30;99.90
23815;DHT22;12088;53.078;8.720;2023-05-27T08:14:55;18.40;99.90
23815;DHT22;12088;53.078;8.720;2023-05-27T08:17:20;19.40;99.90
23815;DHT22;12088;53.078;8.720;2023-05-27T08:19:46;19.40;99.90
23815;DHT22;12088;53.078;8.720;2023-05-27T08:22:12;19.20;99.90
23815;DHT22;12088;53.078;8.720;2023-05-27T08:24:37;19.10;99.90
23815;DHT22;12088;53.078;8.720;2023-05-27T08:27:04;19.30;99.90
23815;DHT22;12088;53.078;8.720;2023-05-27T08:29:32;19.80;99.90
23815;DHT22;12088;53.078;8.720;2023-05-27T08:31:58;20.20;99.90
23815;DHT22;12088;53.078;8.720;2023-05-27T08:34:24;19.80;99.90
23815;DHT22;12088;53.078;8.720;2023-05-27T08:36:51;20.20;99.90
23815;DHT22;12088;53.078;8.720;2023-05-27T08:39:16;20.70;99.90
23815;DHT22;12088;53.078;8.720;2023-05-27T08:41:42;20.80;99.90
23815;DHT22;12088;53.078;8.720;2023-05-27T08:44:08;20.70;99.90
23815;DHT22;12088;53.078;8.720;2023-05-27T08:46:34;20.50;99.90
23815;DHT22;12088;53.078;8.720;2023-05-27T08:49:01;20.70;99.90
23815;DHT22;12088;53.078;8.720;2023-05-27T08:51:27;21.60;99.90
23815;DHT22;12088;53.078;8.720;2023-05-27T08:53:53;21.70;99.90
23815;DHT22;12088;53.078;8.720;2023-05-27T08:56:22;21.20;99.90
23815;DHT22;12088;53.078;8.720;2023-05-27T08:58:48;22.00;99.90
23815;DHT22;12088;53.078;8.720;2023-05-27T09:01:18;22.00;99.90
23815;DHT22;12088;53.078;8.720;2023-05-27T09:03:44;20.70;99.90
23815;DHT22;12088;53.078;8.720;2023-05-27T09:06:10;21.30;99.90
23815;DHT22;12088;53.078;8.720;2023-05-27T09:08:36;20.70;99.90
23815;DHT22;12088;53.078;8.720;2023-05-27T09:11:02;21.10;99.90
23815;DHT22;12088;53.078;8.720;2023-05-27T09:13:31;21.70;99.90
23815;DHT22;12088;53.078;8.720;2023-05-27T09:16:01;22.50;99.90
23815;DHT22;12088;53.078;8.720;2023-05-27T09:18:29;23.50;99.90
23815;DHT22;12088;53.078;8.720;2023-05-27T09:20:57;24.00;99.90
23815;DHT22;12088;53.078;8.720;2023-05-27T09:23:23;22.20;99.90
23815;DHT22;12088;53.078;8.720;2023-05-27T09:25:49;22.10;99.90
23815;DHT22;12088;53.078;8.720;2023-05-27T09:28:24;23.40;99.90
23815;DHT22;12088;53.078;8.720;2023-05-27T09:30:58;24.20;99.90
23815;DHT22;12088;53.078;8.720;2023-05-27T09:33:26;24.70;99.90
23815;DHT22;12088;53.078;8.720;2023-05-27T09:35:51;24.90;99.90
23815;DHT22;12088;53.078;8.720;2023-05-27T09:38:17;24.30;99.90
23815;DHT22;12088;53.078;8.720;2023-05-27T09:40:46;24.00;99.90
23815;DHT22;12088;53.078;8.720;2023-05-27T09:43:15;23.90;99.90
23815;DHT22;12088;53.078;8.720;2023-05-27T09:45:44;23.30;99.90
23815;DHT22;12088;53.078;8.720;2023-05-27T09:48:11;24.00;99.90
23815;DHT22;12088;53.078;8.720;2023-05-27T09:50:38;24.40;99.90
23815;DHT22;12088;53.078;8.720;2023-05-27T09:53:06;25.10;99.90
23815;DHT22;12088;53.078;8.720;2023-05-27T09:55:33;26.00;99.90
23815;DHT22;12088;53.078;8.720;2023-05-27T09:57:59;24.80;99.90
23815;DHT22;12088;53.078;8.720;2023-05-27T10:00:26;25.10;99.90
23815;DHT22;12088;53.078;8.720;2023-05-27T10:02:52;26.30;99.90
23815;DHT22;12088;53.078;8.720;2023-05-27T10:05:19;24.90;99.90
23815;DHT22;12088;53.078;8.720;2023-05-27T10:07:48;25.20;99.90
23815;DHT22;12088;53.078;8.720;2023-05-27T10:10:18;25.90;99.90
23815;DHT22;12088;53.078;8.720;2023-05-27T10:12:45;25.80;99.90
23815;DHT22;12088;53.078;8.720;2023-05-27T10:15:27;26.30;99.90
23815;DHT22;12088;53.078;8.720;2023-05-27T10:17:55;27.40;99.90
23815;DHT22;12088;53.078;8.720;2023-05-27T10:22:56;27.30;99.90
23815;DHT22;12088;53.078;8.720;2023-05-27T10:25:22;27.30;99.90
23815;DHT22;12088;53.078;8.720;2023-05-27T10:27:48;27.70;99.90
23815;DHT22;12088;53.078;8.720;2023-05-27T10:30:15;26.00;99.90
23815;DHT22;12088;53.078;8.720;2023-05-27T10:32:48;27.10;99.90
23815;DHT22;12088;53.078;8.720;2023-05-27T10:35:17;27.50;99.90
23815;DHT22;12088;53.078;8.720;2023-05-27T10:37:43;26.70;99.90
23815;DHT22;12088;53.078;8.720;2023-05-27T10:40:11;27.70;99.90
23815;DHT22;12088;53.078;8.720;2023-05-27T10:42:37;29.20;99.90
23815;DHT22;12088;53.078;8.720;2023-05-27T10:45:09;29.00;99.90
23815;DHT22;12088;53.078;8.720;2023-05-27T10:47:44;29.40;99.90
23815;DHT22;12088;53.078;8.720;2023-05-27T10:50:12;30.00;97.50
23815;DHT22;12088;53.078;8.720;2023-05-27T10:52:38;29.50;99.90
23815;DHT22;12088;53.078;8.720;2023-05-27T10:55:05;28.90;96.10
23815;DHT22;12088;53.078;8.720;2023-05-27T10:57:33;28.30;99.90
23815;DHT22;12088;53.078;8.720;2023-05-27T11:00:05;28.30;99.90
23815;DHT22;12088;53.078;8.720;2023-05-27T11:02:36;28.10;99.90
23815;DHT22;12088;53.078;8.720;2023-05-27T11:05:09;29.40;97.20
23815;DHT22;12088;53.078;8.720;2023-05-27T11:07:38;29.30;99.70
23815;DHT22;12088;53.078;8.720;2023-05-27T11:10:08;28.70;95.60
23815;DHT22;12088;53.078;8.720;2023-05-27T11:12:34;29.60;97.50
23815;DHT22;12088;53.078;8.720;2023-05-27T11:15:00;29.60;99.90
23815;DHT22;12088;53.078;8.720;2023-05-27T11:17:26;30.70;96.90
23815;DHT22;12088;53.078;8.720;2023-05-27T11:19:52;30.20;97.00
23815;DHT22;12088;53.078;8.720;2023-05-27T11:22:19;28.60;92.20
23815;DHT22;12088;53.078;8.720;2023-05-27T11:25:01;29.90;97.00
23815;DHT22;12088;53.078;8.720;2023-05-27T11:27:35;30.50;98.90
23815;DHT22;12088;53.078;8.720;2023-05-27T11:30:09;31.20;99.50
23815;DHT22;12088;53.078;8.720;2023-05-27T11:32:37;30.50;96.90
23815;DHT22;12088;53.078;8.720;2023-05-27T11:35:03;30.20;99.50
23815;DHT22;12088;53.078;8.720;2023-05-27T11:37:34;31.10;99.70
23815;DHT22;12088;53.078;8.720;2023-05-27T11:40:00;30.30;96.30
23815;DHT22;12088;53.078;8.720;2023-05-27T11:42:28;29.80;91.80
23815;DHT22;12088;53.078;8.720;2023-05-27T11:44:55;29.90;94.20
23815;DHT22;12088;53.078;8.720;2023-05-27T11:47:22;30.20;96.80
23815;DHT22;12088;53.078;8.720;2023-05-27T11:49:51;29.80;99.70
23815;DHT22;12088;53.078;8.720;2023-05-27T11:52:17;30.30;90.90
23815;DHT22;12088;53.078;8.720;2023-05-27T11:54:43;28.90;91.30
23815;DHT22;12088;53.078;8.720;2023-05-27T11:57:09;28.00;96.50
23815;DHT22;12088;53.078;8.720;2023-05-27T11:59:38;29.30;96.50
23815;DHT22;12088;53.078;8.720;2023-05-27T12:02:03;31.00;96.50
23815;DHT22;12088;53.078;8.720;2023-05-27T12:04:30;30.60;96.40
23815;DHT22;12088;53.078;8.720;2023-05-27T12:06:56;30.40;94.50
23815;DHT22;12088;53.078;8.720;2023-05-27T12:09:23;31.40;94.50
23815;DHT22;12088;53.078;8.720;2023-05-27T12:11:50;31.30;98.10
23815;DHT22;12088;53.078;8.720;2023-05-27T12:14:15;30.80;92.10
23815;DHT22;12088;53.078;8.720;2023-05-27T12:16:41;30.00;95.00
23815;DHT22;12088;53.078;8.720;2023-05-27T12:19:06;30.30;98.50
23815;DHT22;12088;53.078;8.720;2023-05-27T12:21:32;29.20;96.00
23815;DHT22;12088;53.078;8.720;2023-05-27T12:23:57;28.70;98.10
23815;DHT22;12088;53.078;8.720;2023-05-27T12:26:23;29.20;97.70
23815;DHT22;12088;53.078;8.720;2023-05-27T12:28:50;30.00;93.70
23815;DHT22;12088;53.078;8.720;2023-05-27T12:31:16;31.40;94.60
23815;DHT22;12088;53.078;8.720;2023-05-27T12:33:42;31.90;94.10
23815;DHT22;12088;53.078;8.720;2023-05-27T12:36:07;32.40;93.80
23815;DHT22;12088;53.078;8.720;2023-05-27T12:38:33;31.90;97.20
23815;DHT22;12088;53.078;8.720;2023-05-27T12:40:59;30.90;93.10
23815;DHT22;12088;53.078;8.720;2023-05-27T12:43:24;29.80;91.60
23815;DHT22;12088;53.078;8.720;2023-05-27T12:45:50;31.30;95.10
23815;DHT22;12088;53.078;8.720;2023-05-27T12:48:16;31.10;95.70
23815;DHT22;12088;53.078;8.720;2023-05-27T12:50:43;30.60;95.40
23815;DHT22;12088;53.078;8.720;2023-05-27T12:53:08;29.80;96.10
23815;DHT22;12088;53.078;8.720;2023-05-27T12:55:34;29.10;91.70
23815;DHT22;12088;53.078;8.720;2023-05-27T12:58:01;29.40;94.80
23815;DHT22;12088;53.078;8.720;2023-05-27T13:00:27;29.30;93.10
23815;DHT22;12088;53.078;8.720;2023-05-27T13:02:53;29.30;98.40
23815;DHT22;12088;53.078;8.720;2023-05-27T13:05:19;29.90;94.10
23815;DHT22;12088;53.078;8.720;2023-05-27T13:10:21;30.70;94.40
23815;DHT22;12088;53.078;8.720;2023-05-27T13:12:47;30.00;97.20
23815;DHT22;12088;53.078;8.720;2023-05-27T13:15:13;29.30;94.20
23815;DHT22;12088;53.078;8.720;2023-05-27T13:17:41;29.90;95.70
23815;DHT22;12088;53.078;8.720;2023-05-27T13:20:07;29.20;86.30
23815;DHT22;12088;53.078;8.720;2023-05-27T13:22:34;30.00;91.20
23815;DHT22;12088;53.078;8.720;2023-05-27T13:25:00;30.00;94.00
23815;DHT22;12088;53.078;8.720;2023-05-27T13:27:26;31.60;88.40
23815;DHT22;12088;53.078;8.720;2023-05-27T13:29:52;31.50;92.90
23815;DHT22;12088;53.078;8.720;2023-05-27T13:32:18;30.40;94.20
23815;DHT22;12088;53.078;8.720;2023-05-27T13:34:43;30.30;94.60
23815;DHT22;12088;53.078;8.720;2023-05-27T13:37:09;30.40;92.40
23815;DHT22;12088;53.078;8.720;2023-05-27T13:39:35;31.60;93.00
23815;DHT22;12088;53.078;8.720;2023-05-27T13:42:00;31.00;92.90
23815;DHT22;12088;53.078;8.720;2023-05-27T13:44:26;30.70;95.70
23815;DHT22;12088;53.078;8.720;2023-05-27T13:46:51;30.70;95.80
23815;DHT22;12088;53.078;8.720;2023-05-27T13:49:17;30.30;91.20
23815;DHT22;12088;53.078;8.720;2023-05-27T13:51:44;30.20;91.90
23815;DHT22;12088;53.078;8.720;2023-05-27T13:54:10;30.10;91.00
23815;DHT22;12088;53.078;8.720;2023-05-27T13:56:36;30.50;92.20
23815;DHT22;12088;53.078;8.720;2023-05-27T13:59:01;30.40;87.90
23815;DHT22;12088;53.078;8.720;2023-05-27T14:01:31;30.00;91.70
23815;DHT22;12088;53.078;8.720;2023-05-27T14:03:58;29.90;91.60
23815;DHT22;12088;53.078;8.720;2023-05-27T14:06:24;30.00;91.70
23815;DHT22;12088;53.078;8.720;2023-05-27T14:08:49;29.60;91.70
23815;DHT22;12088;53.078;8.720;2023-05-27T14:11:15;29.20;91.30
23815;DHT22;12088;53.078;8.720;2023-05-27T14:13:41;28.90;92.90
23815;DHT22;12088;53.078;8.720;2023-05-27T14:16:07;29.10;93.00
23815;DHT22;12088;53.078;8.720;2023-05-27T14:18:32;29.10;92.50
23815;DHT22;12088;53.078;8.720;2023-05-27T14:20:59;29.20;93.90
23815;DHT22;12088;53.078;8.720;2023-05-27T14:23:25;29.10;92.70
23815;DHT22;12088;53.078;8.720;2023-05-27T14:25:50;28.70;94.80
23815;DHT22;12088;53.078;8.720;2023-05-27T14:28:16;28.60;87.70
23815;DHT22;12088;53.078;8.720;2023-05-27T14:30:41;28.00;89.00
23815;DHT22;12088;53.078;8.720;2023-05-27T14:33:08;28.10;84.10
23815;DHT22;12088;53.078;8.720;2023-05-27T14:35:38;27.40;88.80
23815;DHT22;12088;53.078;8.720;2023-05-27T14:38:04;27.30;90.80
23815;DHT22;12088;53.078;8.720;2023-05-27T14:40:30;26.70;92.20
23815;DHT22;12088;53.078;8.720;2023-05-27T14:42:56;26.10;92.60
23815;DHT22;12088;53.078;8.720;2023-05-27T14:45:22;24.60;90.10
23815;DHT22;12088;53.078;8.720;2023-05-27T14:47:48;23.80;92.10
23815;DHT22;12088;53.078;8.720;2023-05-27T14:50:16;23.80;93.10
23815;DHT22;12088;53.078;8.720;2023-05-27T14:52:42;24.10;95.30
23815;DHT22;12088;53.078;8.720;2023-05-27T14:55:08;23.70;95.90
23815;DHT22;12088;53.078;8.720;2023-05-27T14:57:34;23.50;93.70
23815;DHT22;12088;53.078;8.720;2023-05-27T15:00:04;23.30;96.30
23815;DHT22;12088;53.078;8.720;2023-05-27T15:02:36;22.90;98.20
23815;DHT22;12088;53.078;8.720;2023-05-27T15:05:03;22.80;96.30
23815;DHT22;12088;53.078;8.720;2023-05-27T15:07:30;22.90;95.20
23815;DHT22;12088;53.078;8.720;2023-05-27T15:09:55;22.80;98.70
23815;DHT22;12088;53.078;8.720;2023-05-27T15:12:21;22.80;98.10
23815;DHT22;12088;53.078;8.720;2023-05-27T15:14:46;22.70;97.20
23815;DHT22;12088;53.078;8.720;2023-05-27T15:17:12;22.50;99.00
23815;DHT22;12088;53.078;8.720;2023-05-27T15:19:38;22.50;99.90
23815;DHT22;12088;53.078;8.720;2023-05-27T15:22:04;22.40;96.70
23815;DHT22;12088;53.078;8.720;2023-05-27T15:24:30;22.30;97.30
23815;DHT22;12088;53.078;8.720;2023-05-27T15:26:55;22.00;99.40
23815;DHT22;12088;53.078;8.720;2023-05-27T15:29:21;21.90;96.70
23815;DHT22;12088;53.078;8.720;2023-05-27T15:31:47;21.70;95.80
23815;DHT22;12088;53.078;8.720;2023-05-27T15:34:13;21.70;99.00
23815;DHT22;12088;53.078;8.720;2023-05-27T15:36:38;21.70;99.90
23815;DHT22;12088;53.078;8.720;2023-05-27T15:39:04;21.80;99.90
23815;DHT22;12088;53.078;8.720;2023-05-27T15:41:31;21.80;99.90
23815;DHT22;12088;53.078;8.720;2023-05-27T15:43:57;21.60;99.70